Time;durP1;ratioP1;P1;durP2;ratioP2;P2;SDS_P1;SDS_P2;PMS_P1;PMS_P2;Temp;Humidity;BMP_temperature;BMP_pressure;BME280_temperature;BME280_humidity;BME280_pressure;Samples;Min_cycle;Max_cycle;Signal;HPM_P1;HPM_P2
2023/09/06 00:00:43;;;;;;;4.78;3.05;;;21.70;99.90;;;;;;4965404;28;20027;-76
2023/09/06 00:03:12;;;;;;;4.18;2.67;;;21.70;99.90;;;;;;4947154;28;20026;-76
2023/09/06 00:05:41;;;;;;;4.45;2.75;;;21.70;99.90;;;;;;4963710;28;20027;-75
2023/09/06 00:08:08;;;;;;;4.88;2.88;;;21.70;99.90;;;;;;4949294;28;20034;-76
2023/09/06 00:10:39;;;;;;;4.45;2.80;;;21.70;99.90;;;;;;4957453;28;20074;-76
2023/09/06 00:13:10;;;;;;;7.75;3.00;;;21.70;99.90;;;;;;4962204;28;20106;-76
2023/09/06 00:15:36;;;;;;;;;;;21.60;99.90;;;;;;4959199;28;20046;-76
2023/09/06 00:18:05;;;;;;;4.47;2.67;;;21.60;99.90;;;;;;4966401;28;19910;-76
2023/09/06 00:20:36;;;;;;;5.90;2.80;;;21.60;99.90;;;;;;4966427;28;20041;-76
2023/09/06 00:23:08;;;;;;;5.32;2.92;;;21.50;99.90;;;;;;4946937;28;20050;-75
2023/09/06 00:25:35;;;;;;;4.97;2.60;;;21.50;99.90;;;;;;4942714;29;20368;-76
2023/09/06 00:28:04;;;;;;;4.70;2.50;;;21.50;99.90;;;;;;4967395;28;20094;-76
2023/09/06 00:30:30;;;;;;;7.32;2.90;;;21.40;99.90;;;;;;4953465;29;20916;-75
2023/09/06 00:32:59;;;;;;;4.03;2.60;;;21.40;99.90;;;;;;4957019;28;20030;-76
2023/09/06 00:35:26;;;;;;;2.90;2.50;;;21.30;99.90;;;;;;4952073;29;20763;-76
2023/09/06 00:37:53;;;;;;;6.22;2.90;;;21.30;99.90;;;;;;4949655;28;20054;-76
2023/09/06 00:40:21;;;;;;;6.07;3.08;;;21.30;99.90;;;;;;4953052;28;20518;-75
2023/09/06 00:42:52;;;;;;;6.35;3.00;;;21.20;99.90;;;;;;4966835;28;20023;-76
2023/09/06 00:45:26;;;;;;;4.68;2.60;;;21.20;99.90;;;;;;4960614;28;20031;-76
2023/09/06 00:47:57;;;;;;;4.38;3.00;;;21.10;99.90;;;;;;4941903;28;20031;-75
2023/09/06 00:50:25;;;;;;;4.13;2.53;;;21.10;99.90;;;;;;4965636;28;20108;-76
2023/09/06 00:52:52;;;;;;;5.03;2.70;;;21.10;99.90;;;;;;4966681;28;20397;-76
2023/09/06 00:55:19;;;;;;;4.50;2.60;;;21.00;99.90;;;;;;4958694;28;20385;-76
2023/09/06 00:57:45;;;;;;;5.07;2.88;;;21.00;99.90;;;;;;4960998;28;20027;-76
2023/09/06 01:00:17;;;;;;;5.65;2.92;;;21.00;99.90;;;;;;4950305;29;20011;-76
2023/09/06 01:02:47;;;;;;;4.47;2.85;;;20.90;99.90;;;;;;4965394;28;20045;-76
2023/09/06 01:05:17;;;;;;;6.43;3.17;;;20.90;99.90;;;;;;4956546;28;20026;-76
2023/09/06 01:08:06;;;;;;;6.33;2.80;;;20.90;99.90;;;;;;4966558;28;20019;-76
2023/09/06 01:10:34;;;;;;;5.03;3.05;;;20.80;99.90;;;;;;4974278;28;20688;-76
2023/09/06 01:13:00;;;;;;;6.22;3.10;;;20.80;99.90;;;;;;4964599;28;20505;-76
2023/09/06 01:15:26;;;;;;;7.13;3.28;;;20.80;99.90;;;;;;4962458;28;20055;-76
2023/09/06 01:17:54;;;;;;;4.60;2.63;;;20.70;99.90;;;;;;4970446;28;20023;-76
2023/09/06 01:20:51;;;;;;;5.07;3.30;;;20.70;99.90;;;;;;4968134;28;20030;-75
2023/09/06 01:23:26;;;;;;;5.15;3.10;;;20.70;99.90;;;;;;4945670;29;20043;-75
2023/09/06 01:25:53;;;;;;;4.97;2.97;;;20.60;99.90;;;;;;4956686;28;20031;-75
2023/09/06 01:28:19;;;;;;;4.20;2.90;;;20.60;99.90;;;;;;4968721;28;20031;-76
2023/09/06 01:30:46;;;;;;;5.47;3.13;;;20.60;99.90;;;;;;4969727;28;20460;-76
2023/09/06 01:33:16;;;;;;;6.50;3.30;;;20.50;99.90;;;;;;4958638;28;20069;-76
2023/09/06 01:35:42;;;;;;;3.60;2.75;;;20.50;99.90;;;;;;4955098;29;20027;-76
2023/09/06 01:38:07;;;;;;;4.65;2.95;;;20.50;99.90;;;;;;4970311;28;20378;-76
2023/09/06 01:40:33;;;;;;;4.50;3.08;;;20.40;99.90;;;;;;4962846;28;20046;-76
2023/09/06 01:42:58;;;;;;;4.00;2.88;;;20.40;99.90;;;;;;4962188;28;20023;-75
2023/09/06 01:45:24;;;;;;;5.25;3.40;;;20.40;99.90;;;;;;4967327;28;20042;-76
2023/09/06 01:47:50;;;;;;;5.18;3.15;;;20.40;99.90;;;;;;4969951;28;20034;-76
2023/09/06 01:50:19;;;;;;;5.43;3.40;;;20.40;99.90;;;;;;4962430;28;20030;-75
2023/09/06 01:52:46;;;;;;;5.22;2.75;;;20.30;99.90;;;;;;4963109;28;20170;-75
2023/09/06 01:55:11;;;;;;;6.97;3.80;;;20.30;99.90;;;;;;4969816;28;20019;-75
2023/09/06 01:57:37;;;;;;;5.00;2.70;;;20.30;99.90;;;;;;4955939;28;20023;-76
2023/09/06 02:02:47;;;;;;;3.40;2.40;;;20.30;99.90;;;;;;4966323;28;20509;-76
2023/09/06 02:05:13;;;;;;;4.20;3.05;;;20.20;99.90;;;;;;4969744;28;20054;-75
2023/09/06 02:07:39;;;;;;;5.93;3.15;;;20.20;99.90;;;;;;4964856;28;20077;-75
2023/09/06 02:10:05;;;;;;;5.38;3.08;;;20.20;99.90;;;;;;4960307;28;20099;-75
2023/09/06 02:12:31;;;;;;;5.70;3.58;;;20.20;99.90;;;;;;4961629;28;20501;-76
2023/09/06 02:14:56;;;;;;;6.78;3.40;;;20.10;99.90;;;;;;4964689;28;20114;-76
2023/09/06 02:17:28;;;;;;;5.63;3.40;;;20.00;99.90;;;;;;4969295;28;20027;-76
2023/09/06 02:19:54;;;;;;;4.70;3.30;;;20.00;99.90;;;;;;4962870;28;20478;-75
2023/09/06 02:22:19;;;;;;;7.10;2.83;;;20.00;99.90;;;;;;4961375;28;20019;-76
2023/09/06 02:24:45;;;;;;;9.63;3.53;;;20.00;99.90;;;;;;4970819;28;20019;-75
2023/09/06 02:27:12;;;;;;;4.07;3.10;;;19.90;99.90;;;;;;4967779;28;20034;-76
2023/09/06 02:29:42;;;;;;;4.35;2.83;;;19.90;99.90;;;;;;4961633;28;20038;-76
2023/09/06 02:32:10;;;;;;;4.85;3.00;;;19.90;99.90;;;;;;4963902;28;20027;-76
2023/09/06 02:34:36;;;;;;;5.25;3.22;;;19.90;99.90;;;;;;4968863;28;20035;-76
2023/09/06 02:37:02;;;;;;;5.40;3.40;;;19.90;99.90;;;;;;4964398;28;20027;-76
2023/09/06 02:39:28;;;;;;;4.53;3.20;;;19.80;99.90;;;;;;4961032;28;20047;-76
2023/09/06 02:41:53;;;;;;;6.13;3.20;;;19.80;99.90;;;;;;4967277;28;20096;-76
2023/09/06 02:44:19;;;;;;;6.10;3.42;;;19.80;99.90;;;;;;4968289;28;20061;-76
2023/09/06 02:46:45;;;;;;;6.13;3.30;;;19.80;99.90;;;;;;4960875;28;20049;-76
2023/09/06 02:49:17;;;;;;;6.45;3.25;;;19.70;99.90;;;;;;4963679;28;20497;-75
2023/09/06 02:51:43;;;;;;;5.40;2.80;;;19.70;99.90;;;;;;4968602;28;20043;-76
2023/09/06 02:54:09;;;;;;;6.10;3.22;;;19.70;99.90;;;;;;4965183;28;20030;-76
2023/09/06 02:56:37;;;;;;;5.68;3.10;;;19.70;99.90;;;;;;4960183;28;20406;-76
2023/09/06 02:59:07;;;;;;;6.03;3.17;;;19.70;99.90;;;;;;4966238;28;20054;-76
2023/09/06 03:01:35;;;;;;;5.70;3.22;;;19.60;99.90;;;;;;4938681;28;20023;-76
2023/09/06 03:04:06;;;;;;;4.53;2.67;;;19.60;99.90;;;;;;4964028;28;20023;-76
2023/09/06 03:06:33;;;;;;;4.68;3.15;;;19.60;99.90;;;;;;4968155;28;20031;-76
2023/09/06 03:09:00;;;;;;;7.10;3.03;;;19.60;99.90;;;;;;4961055;28;20109;-76
2023/09/06 03:11:26;;;;;;;4.72;3.10;;;19.60;99.90;;;;;;4969953;28;20035;-76
2023/09/06 03:13:57;;;;;;;6.07;3.45;;;19.60;99.90;;;;;;4960947;28;20031;-76
2023/09/06 03:16:22;;;;;;;5.80;3.53;;;19.50;99.90;;;;;;4966652;28;20015;-76
2023/09/06 03:18:49;;;;;;;4.20;3.28;;;19.60;99.90;;;;;;4968121;28;20064;-75
2023/09/06 03:21:17;;;;;;;6.13;3.70;;;19.50;99.90;;;;;;4958650;28;20014;-76
2023/09/06 03:23:44;;;;;;;5.07;3.05;;;19.50;99.90;;;;;;4962608;28;20481;-76
2023/09/06 03:26:13;;;;;;;3.45;2.63;;;19.50;99.90;;;;;;4967713;28;20378;-76
2023/09/06 03:28:40;;;;;;;5.47;3.33;;;19.50;99.90;;;;;;4964559;28;20091;-76
2023/09/06 03:31:09;;;;;;;5.45;3.42;;;19.50;99.90;;;;;;4960266;28;20451;-76
2023/09/06 03:33:35;;;;;;;4.90;3.30;;;19.50;99.90;;;;;;4952870;29;20122;-76
2023/09/06 03:36:07;;;;;;;4.50;3.00;;;19.50;99.90;;;;;;4968711;28;20374;-75
2023/09/06 03:38:39;;;;;;;5.93;3.08;;;19.50;99.90;;;;;;4965982;28;20111;-76
2023/09/06 03:41:07;;;;;;;7.20;3.75;;;19.40;99.90;;;;;;4967814;28;20137;-76
2023/09/06 03:43:33;;;;;;;3.70;2.85;;;19.40;99.90;;;;;;4961131;28;20026;-76
2023/09/06 03:46:09;;;;;;;6.80;3.58;;;19.40;99.90;;;;;;4960614;28;20059;-75
2023/09/06 03:48:38;;;;;;;4.55;3.13;;;19.40;99.90;;;;;;4947174;28;20030;-76
2023/09/06 03:51:04;;;;;;;5.38;3.53;;;19.40;99.90;;;;;;4960799;28;20524;-75
2023/09/06 03:53:29;;;;;;;4.97;3.20;;;19.40;99.90;;;;;;4967390;28;20023;-76
2023/09/06 03:55:57;;;;;;;5.00;3.20;;;19.40;99.90;;;;;;4947083;28;20034;-75
2023/09/06 03:58:27;;;;;;;5.70;3.83;;;19.30;99.90;;;;;;4959194;28;20019;-76
2023/09/06 04:00:53;;;;;;;5.38;3.67;;;19.30;99.90;;;;;;4963987;28;20027;-76
2023/09/06 04:03:19;;;;;;;5.10;3.10;;;19.30;99.90;;;;;;4965580;28;20019;-76
2023/09/06 04:05:48;;;;;;;4.47;3.13;;;19.30;99.90;;;;;;4965643;28;20051;-76
2023/09/06 04:08:19;;;;;;;8.32;3.58;;;19.20;99.90;;;;;;4967232;28;20041;-76
2023/09/06 04:10:46;;;;;;;5.55;3.15;;;19.20;99.90;;;;;;4957759;28;20071;-75
2023/09/06 04:13:13;;;;;;;9.63;3.60;;;19.20;99.90;;;;;;4962691;28;20022;-76
2023/09/06 04:15:42;;;;;;;6.55;3.53;;;19.20;99.90;;;;;;4959191;28;20031;-76
2023/09/06 04:18:11;;;;;;;6.75;3.42;;;19.20;99.90;;;;;;4965113;28;20027;-76
2023/09/06 04:20:46;;;;;;;6.78;3.95;;;19.20;99.90;;;;;;4949712;28;20027;-74
2023/09/06 04:23:16;;;;;;;6.70;3.78;;;19.20;99.90;;;;;;4960758;28;20129;-73
2023/09/06 04:25:44;;;;;;;5.38;2.75;;;19.10;99.90;;;;;;4959676;28;20498;-75
2023/09/06 04:28:12;;;;;;;4.95;3.70;;;19.10;99.90;;;;;;4966406;28;20027;-75
2023/09/06 04:30:42;;;;;;;6.43;3.53;;;19.10;99.90;;;;;;4965774;28;20035;-76
2023/09/06 04:33:14;;;;;;;5.88;3.38;;;19.10;99.90;;;;;;4959304;28;20019;-75
2023/09/06 04:35:42;;;;;;;5.97;4.00;;;19.10;99.90;;;;;;4952226;29;20023;-76
2023/09/06 04:38:15;;;;;;;5.63;3.65;;;19.10;99.90;;;;;;4969508;28;20082;-75
2023/09/06 04:40:44;;;;;;;5.93;3.95;;;19.10;99.90;;;;;;4966520;28;20058;-76
2023/09/06 04:43:12;;;;;;;5.65;3.58;;;19.00;99.90;;;;;;4962981;28;20102;-76
2023/09/06 04:45:37;;;;;;;6.47;4.03;;;19.00;99.90;;;;;;4966857;28;20476;-75
2023/09/06 04:48:11;;;;;;;6.30;4.10;;;19.00;99.90;;;;;;4970770;28;20027;-76
2023/09/06 04:50:38;;;;;;;6.20;3.88;;;19.00;99.90;;;;;;4966373;28;20441;-76
2023/09/06 04:53:04;;;;;;;5.68;3.38;;;19.00;99.90;;;;;;4962889;28;20027;-76
2023/09/06 04:55:35;;;;;;;5.28;3.28;;;19.00;99.90;;;;;;4969332;28;20035;-75
2023/09/06 04:58:05;;;;;;;8.27;4.40;;;19.00;99.90;;;;;;4969254;28;20026;-76
2023/09/06 05:00:37;;;;;;;6.88;3.88;;;18.90;99.90;;;;;;4963691;28;20476;-75
2023/09/06 05:03:05;;;;;;;5.40;3.67;;;18.90;99.90;;;;;;4963328;28;20115;-76
2023/09/06 05:05:31;;;;;;;8.80;4.28;;;18.90;99.90;;;;;;4970582;28;20027;-76
2023/09/06 05:07:56;;;;;;;5.70;4.10;;;18.80;99.90;;;;;;4968545;28;20030;-76
2023/09/06 05:10:25;;;;;;;8.43;4.53;;;18.80;99.90;;;;;;4974619;28;20097;-76
2023/09/06 05:12:51;;;;;;;5.97;3.90;;;18.90;99.90;;;;;;4973409;28;20066;-76
2023/09/06 05:15:16;;;;;;;10.00;4.50;;;18.80;99.90;;;;;;4963975;28;20167;-74
2023/09/06 05:17:42;;;;;;;6.85;4.80;;;18.90;99.90;;;;;;4970068;28;20547;-76
2023/09/06 05:20:35;;;;;;;5.97;4.43;;;18.90;99.90;;;;;;4967178;28;20261;-76
2023/09/06 05:23:01;;;;;;;9.90;4.13;;;18.90;99.90;;;;;;4949256;28;20023;-75
2023/09/06 05:25:27;;;;;;;7.80;4.93;;;18.90;99.90;;;;;;4965483;28;20063;-75
2023/09/06 05:28:02;;;;;;;8.25;4.57;;;18.90;99.90;;;;;;4962035;28;20133;-76
2023/09/06 05:30:34;;;;;;;7.95;4.43;;;18.80;99.90;;;;;;4964923;28;20035;-76
2023/09/06 05:33:00;;;;;;;8.30;4.63;;;18.90;99.90;;;;;;4969509;28;20018;-75
2023/09/06 05:35:26;;;;;;;6.47;4.50;;;18.80;99.90;;;;;;4971574;28;20050;-76
2023/09/06 05:37:58;;;;;;;8.85;4.53;;;18.90;99.90;;;;;;4967221;28;20023;-76
2023/09/06 05:40:24;;;;;;;5.88;4.75;;;18.90;99.90;;;;;;4966747;28;20058;-76
2023/09/06 05:42:50;;;;;;;6.28;4.20;;;18.80;99.90;;;;;;4963407;28;20023;-74
2023/09/06 05:45:18;;;;;;;9.15;4.63;;;18.80;99.90;;;;;;4964982;28;20039;-74
2023/09/06 05:47:47;;;;;;;6.45;4.25;;;18.90;99.90;;;;;;4959625;28;20050;-74
2023/09/06 05:50:13;;;;;;;8.27;4.70;;;18.90;99.90;;;;;;4948146;29;20055;-74
2023/09/06 05:52:39;;;;;;;6.20;4.80;;;18.90;99.90;;;;;;4949739;28;20066;-74
2023/09/06 05:55:06;;;;;;;9.05;5.22;;;18.90;99.90;;;;;;4969749;28;20469;-74
2023/09/06 05:57:32;;;;;;;8.68;5.07;;;19.00;99.90;;;;;;4965762;28;20027;-74
2023/09/06 05:59:58;;;;;;;8.10;4.80;;;19.00;99.90;;;;;;4961840;28;20086;-74
2023/09/06 06:02:25;;;;;;;7.35;4.68;;;19.00;99.90;;;;;;4965816;28;20059;-74
2023/09/06 06:04:52;;;;;;;7.93;5.18;;;19.10;99.90;;;;;;4969636;28;20062;-74
2023/09/06 06:07:18;;;;;;;9.25;4.88;;;19.10;99.90;;;;;;4961293;28;20030;-74
2023/09/06 06:09:48;;;;;;;7.50;4.50;;;19.10;99.90;;;;;;4962482;28;20736;-74
2023/09/06 06:12:14;;;;;;;8.80;4.38;;;19.20;99.90;;;;;;4959429;28;20043;-74
2023/09/06 06:14:45;;;;;;;6.55;3.97;;;19.20;99.90;;;;;;4955856;28;20054;-74
2023/09/06 06:17:11;;;;;;;12.00;5.07;;;19.20;99.90;;;;;;4956958;28;20035;-75
2023/09/06 06:19:37;;;;;;;7.03;4.35;;;19.30;99.90;;;;;;4953997;28;20023;-76
2023/09/06 06:22:03;;;;;;;6.82;4.18;;;19.30;99.90;;;;;;4957598;28;20540;-75
2023/09/06 06:24:35;;;;;;;7.00;4.38;;;19.40;99.90;;;;;;4952757;28;20098;-76
2023/09/06 06:27:01;;;;;;;6.45;4.38;;;19.40;99.90;;;;;;4957455;28;20031;-75
2023/09/06 06:29:26;;;;;;;6.55;4.57;;;19.40;99.90;;;;;;4957124;28;20022;-75
2023/09/06 06:31:52;;;;;;;5.55;3.63;;;19.50;99.90;;;;;;4971352;28;20041;-75
2023/09/06 06:34:18;;;;;;;6.00;3.85;;;19.50;99.90;;;;;;4954713;28;20430;-74
2023/09/06 06:36:46;;;;;;;6.47;4.13;;;19.60;99.90;;;;;;4966875;28;20397;-75
2023/09/06 06:39:12;;;;;;;7.75;5.15;;;19.60;99.90;;;;;;4957175;28;20534;-75
2023/09/06 06:41:38;;;;;;;5.57;4.30;;;19.70;99.90;;;;;;4953126;28;20019;-75
2023/09/06 06:44:08;;;;;;;8.32;4.15;;;19.70;99.90;;;;;;4962323;28;20375;-75
2023/09/06 06:46:37;;;;;;;10.02;4.50;;;19.70;99.90;;;;;;4966790;28;20027;-75
2023/09/06 06:49:04;;;;;;;6.18;3.97;;;19.80;99.90;;;;;;4958032;28;20027;-75
2023/09/06 06:51:38;;;;;;;6.57;4.15;;;19.80;99.90;;;;;;4962997;28;20059;-75
2023/09/06 06:54:14;;;;;;;7.68;4.00;;;19.90;99.90;;;;;;4965245;28;20024;-75
2023/09/06 06:56:40;;;;;;;7.72;4.32;;;19.90;99.90;;;;;;4968419;28;20512;-75
2023/09/06 06:59:09;;;;;;;7.50;3.92;;;20.00;99.90;;;;;;4963391;28;20030;-75
2023/09/06 07:01:35;;;;;;;10.13;5.07;;;20.00;99.90;;;;;;4959956;28;20038;-75
2023/09/06 07:04:04;;;;;;;6.40;4.25;;;20.10;99.90;;;;;;4985347;28;20031;-75
2023/09/06 07:06:32;;;;;;;5.75;4.55;;;20.10;99.90;;;;;;4960119;28;20046;-75
2023/09/06 07:08:59;;;;;;;6.28;3.67;;;20.20;99.90;;;;;;4970352;28;20045;-75
2023/09/06 07:11:25;;;;;;;9.10;4.80;;;20.20;99.90;;;;;;4961938;28;20046;-75
2023/09/06 07:13:51;;;;;;;7.90;3.95;;;20.30;99.90;;;;;;4967882;28;20027;-74
2023/09/06 07:16:19;;;;;;;8.95;4.40;;;20.30;99.90;;;;;;4956609;28;20058;-74
2023/09/06 07:18:48;;;;;;;8.32;3.95;;;20.40;99.90;;;;;;4954402;28;20030;-75
2023/09/06 07:21:15;;;;;;;6.45;3.60;;;20.40;99.90;;;;;;4957037;28;20034;-75
2023/09/06 07:23:40;;;;;;;7.97;4.45;;;20.50;99.90;;;;;;4956110;28;20023;-75
2023/09/06 07:26:06;;;;;;;7.78;4.20;;;20.50;99.90;;;;;;4966756;28;20031;-75
2023/09/06 07:28:45;;;;;;;6.22;3.83;;;20.60;99.90;;;;;;4961876;28;20026;-76
2023/09/06 07:31:12;;;;;;;7.43;3.58;;;20.70;99.90;;;;;;4960255;28;20517;-75
2023/09/06 07:33:38;;;;;;;6.22;3.60;;;20.80;99.90;;;;;;4963044;28;20034;-75
2023/09/06 07:36:05;;;;;;;5.53;3.83;;;20.80;99.90;;;;;;4968179;28;20026;-76
2023/09/06 07:38:30;;;;;;;8.05;4.10;;;20.90;99.90;;;;;;4961544;28;20015;-76
2023/09/06 07:41:07;;;;;;;6.63;3.80;;;20.90;99.90;;;;;;4952024;28;20591;-76
2023/09/06 07:43:35;;;;;;;6.47;4.35;;;21.00;99.90;;;;;;4937819;28;20448;-76
2023/09/06 07:46:02;;;;;;;8.05;3.83;;;21.10;99.90;;;;;;4959180;28;20031;-75
2023/09/06 07:48:29;;;;;;;5.68;3.67;;;21.10;99.90;;;;;;4967375;28;20035;-76
2023/09/06 07:50:56;;;;;;;6.18;3.17;;;21.10;99.90;;;;;;4951952;29;20051;-76
2023/09/06 07:53:24;;;;;;;4.75;3.17;;;21.20;99.90;;;;;;4966985;28;20097;-76
2023/09/06 07:55:53;;;;;;;6.40;3.92;;;21.30;99.90;;;;;;4963869;28;20037;-76
2023/09/06 07:58:19;;;;;;;6.03;3.50;;;21.30;99.90;;;;;;4959247;28;20130;-76
2023/09/06 08:00:45;;;;;;;5.10;3.40;;;21.40;99.90;;;;;;4965005;28;20054;-76
2023/09/06 08:03:11;;;;;;;5.63;3.22;;;21.50;99.90;;;;;;4963726;28;20071;-76
2023/09/06 08:05:37;;;;;;;7.75;3.28;;;21.50;99.90;;;;;;4942046;28;20065;-76
2023/09/06 08:08:10;;;;;;;4.30;2.92;;;21.60;99.90;;;;;;4959405;28;20530;-75
2023/09/06 08:10:46;;;;;;;6.25;3.20;;;21.70;99.90;;;;;;4949040;28;20031;-75
2023/09/06 08:13:12;;;;;;;5.13;2.92;;;21.80;99.90;;;;;;4935087;29;20042;-75
2023/09/06 08:15:44;;;;;;;5.25;3.00;;;21.80;99.90;;;;;;4953694;28;20027;-76
2023/09/06 08:18:10;;;;;;;5.82;3.22;;;21.90;99.90;;;;;;4964017;28;20030;-76
2023/09/06 08:20:36;;;;;;;7.28;2.88;;;22.00;99.90;;;;;;4966052;28;20042;-76
2023/09/06 08:23:01;;;;;;;4.50;3.10;;;22.00;99.90;;;;;;4959414;28;20019;-76
2023/09/06 08:25:27;;;;;;;5.82;3.35;;;22.20;99.90;;;;;;4944075;29;20506;-75
2023/09/06 08:27:53;;;;;;;5.88;3.20;;;22.20;99.90;;;;;;4967110;28;20363;-76
2023/09/06 08:30:24;;;;;;;6.35;3.03;;;22.30;99.90;;;;;;4963390;28;20512;-76
2023/09/06 08:32:51;;;;;;;5.20;3.20;;;22.40;99.90;;;;;;4958966;28;20054;-75
2023/09/06 08:35:17;;;;;;;4.72;3.33;;;22.50;99.90;;;;;;4946245;29;20040;-75
2023/09/06 08:37:45;;;;;;;4.55;2.92;;;22.60;99.90;;;;;;4960764;28;20019;-75
2023/09/06 08:40:15;;;;;;;4.32;2.83;;;22.60;99.90;;;;;;4954985;28;20089;-76
2023/09/06 08:42:44;;;;;;;7.85;3.60;;;22.70;99.90;;;;;;4960226;28;20063;-76
2023/09/06 08:45:11;;;;;;;3.92;2.65;;;22.80;99.90;;;;;;4946842;28;20029;-76
2023/09/06 08:47:41;;;;;;;4.90;2.95;;;22.90;99.90;;;;;;4958873;28;20041;-75
2023/09/06 08:50:09;;;;;;;5.25;3.40;;;23.00;99.90;;;;;;4958408;28;20023;-76
2023/09/06 08:52:43;;;;;;;5.78;3.10;;;23.00;99.90;;;;;;4964185;28;20042;-75
2023/09/06 08:55:10;;;;;;;4.20;2.70;;;23.10;99.90;;;;;;4965714;28;20098;-76
2023/09/06 08:57:41;;;;;;;5.22;3.28;;;23.20;99.90;;;;;;4961635;28;20033;-75
2023/09/06 09:00:12;;;;;;;4.68;2.78;;;23.20;99.90;;;;;;4958439;28;20761;-77
2023/09/06 09:02:40;;;;;;;7.47;3.05;;;23.40;99.90;;;;;;4955563;28;20033;-75
2023/09/06 09:05:12;;;;;;;5.10;3.13;;;23.40;99.90;;;;;;4955209;28;20498;-75
2023/09/06 09:07:38;;;;;;;5.30;2.92;;;23.50;99.90;;;;;;4959242;28;20054;-76
2023/09/06 09:10:09;;;;;;;7.18;3.50;;;23.50;99.90;;;;;;4955156;28;20020;-76
2023/09/06 09:12:52;;;;;;;4.35;2.35;;;23.60;99.90;;;;;;4952664;28;20524;-75
2023/09/06 09:15:21;;;;;;;4.72;3.13;;;23.70;99.90;;;;;;4958901;28;20038;-75
2023/09/06 09:17:50;;;;;;;4.72;2.40;;;23.80;99.90;;;;;;4949126;28;20035;-76
2023/09/06 09:20:17;;;;;;;5.22;2.85;;;23.90;99.90;;;;;;4958250;28;20445;-76
2023/09/06 09:22:45;;;;;;;6.68;3.22;;;23.90;99.90;;;;;;4966394;28;20080;-75
2023/09/06 09:25:17;;;;;;;5.72;2.70;;;24.00;99.90;;;;;;4965065;28;20441;-75
2023/09/06 09:27:56;;;;;;;8.60;3.20;;;24.10;99.90;;;;;;4960501;28;20019;-75
2023/09/06 09:30:27;;;;;;;5.97;3.13;;;24.20;99.90;;;;;;4967130;28;20027;-75
2023/09/06 09:33:01;;;;;;;5.35;3.10;;;24.20;99.90;;;;;;4961952;28;20027;-75
2023/09/06 09:35:31;;;;;;;5.93;3.20;;;24.30;99.90;;;;;;4959063;28;20031;-75
2023/09/06 09:38:00;;;;;;;7.75;2.85;;;24.40;99.90;;;;;;4969874;28;20507;-75
2023/09/06 09:40:32;;;;;;;5.80;2.75;;;24.50;99.90;;;;;;4956220;28;20513;-75
2023/09/06 09:43:02;;;;;;;3.95;2.60;;;24.50;99.90;;;;;;4952353;28;20785;-75
2023/09/06 09:45:43;;;;;;;5.55;2.85;;;24.60;99.90;;;;;;4964851;28;20026;-75
2023/09/06 09:48:12;;;;;;;7.95;2.72;;;24.70;99.90;;;;;;4961927;28;20034;-75
2023/09/06 09:50:41;;;;;;;7.75;2.67;;;24.80;99.90;;;;;;4966337;28;20050;-75
2023/09/06 09:53:10;;;;;;;3.30;2.20;;;24.90;99.90;;;;;;4969519;28;20022;-75
2023/09/06 09:55:44;;;;;;;7.43;3.05;;;25.00;99.90;;;;;;4962788;28;20057;-76
2023/09/06 09:58:11;;;;;;;3.95;2.60;;;25.00;99.90;;;;;;4961798;28;20038;-75
2023/09/06 10:00:39;;;;;;;4.05;2.70;;;25.10;99.90;;;;;;4968025;28;20054;-75
2023/09/06 10:03:05;;;;;;;4.35;2.83;;;25.10;99.90;;;;;;4966119;28;20038;-75
2023/09/06 10:05:36;;;;;;;4.07;2.47;;;25.20;99.90;;;;;;4965497;28;20425;-76
2023/09/06 10:08:05;;;;;;;3.90;2.20;;;25.30;99.90;;;;;;4967971;28;20034;-75
2023/09/06 10:10:33;;;;;;;5.95;2.90;;;25.30;99.90;;;;;;4960494;28;20577;-76
2023/09/06 10:13:04;;;;;;;6.70;2.15;;;25.50;99.90;;;;;;4962226;28;20112;-76
2023/09/06 10:15:33;;;;;;;3.40;2.50;;;25.50;99.90;;;;;;4960901;28;20031;-76
2023/09/06 10:17:59;;;;;;;5.30;2.65;;;25.60;99.90;;;;;;4929745;29;20123;-76
2023/09/06 10:20:26;;;;;;;3.53;2.55;;;25.70;99.90;;;;;;4941635;29;20466;-76
2023/09/06 10:22:56;;;;;;;9.32;3.00;;;25.70;99.90;;;;;;4957730;28;20023;-76
2023/09/06 10:25:27;;;;;;;7.57;2.53;;;25.80;99.90;;;;;;4958736;28;20027;-76
2023/09/06 10:28:03;;;;;;;5.82;2.88;;;25.90;99.90;;;;;;4959555;28;20498;-76
2023/09/06 10:30:34;;;;;;;8.80;2.85;;;25.90;99.90;;;;;;4938418;29;20464;-76
2023/09/06 10:33:02;;;;;;;4.43;2.75;;;26.10;99.90;;;;;;4955357;28;20039;-76
2023/09/06 10:35:32;;;;;;;4.43;2.65;;;26.10;99.90;;;;;;4939736;29;20090;-76
2023/09/06 10:38:14;;;;;;;6.57;3.00;;;26.20;99.90;;;;;;4956774;28;20129;-76
2023/09/06 10:40:51;;;;;;;5.63;3.10;;;26.20;99.90;;;;;;4956027;28;20043;-76
2023/09/06 10:43:28;;;;;;;7.22;3.25;;;26.30;99.90;;;;;;4968257;28;20023;-76
2023/09/06 10:45:58;;;;;;;6.82;2.72;;;26.40;99.90;;;;;;4953052;28;20485;-76
2023/09/06 10:48:26;;;;;;;7.13;3.17;;;26.40;99.90;;;;;;4958206;28;20035;-76
2023/09/06 10:51:12;;;;;;;4.97;2.88;;;26.40;99.90;;;;;;4958683;28;20093;-77
2023/09/06 10:53:40;;;;;;;8.80;3.33;;;26.60;99.90;;;;;;4955143;28;20034;-76
2023/09/06 10:56:09;;;;;;;5.57;2.78;;;26.60;99.90;;;;;;4947261;28;20491;-76
2023/09/06 10:58:37;;;;;;;5.45;2.92;;;26.70;99.90;;;;;;4955403;28;20837;-76
2023/09/06 11:01:18;;;;;;;5.15;3.17;;;26.80;99.90;;;;;;4950263;28;20016;-76
2023/09/06 11:03:50;;;;;;;7.00;3.15;;;26.80;99.90;;;;;;4957437;28;20055;-76
2023/09/06 11:06:18;;;;;;;5.47;2.53;;;26.90;99.90;;;;;;4969559;28;20082;-76
2023/09/06 11:08:47;;;;;;;5.75;2.90;;;26.90;99.90;;;;;;4938748;29;20031;-76
2023/09/06 11:11:16;;;;;;;6.55;3.10;;;27.00;99.90;;;;;;4952031;28;20031;-76
2023/09/06 11:13:44;;;;;;;6.35;3.00;;;27.00;99.90;;;;;;4949776;28;20457;-76
2023/09/06 11:16:15;;;;;;;3.90;2.42;;;27.00;99.90;;;;;;4953974;28;20379;-76
2023/09/06 11:18:46;;;;;;;6.43;3.20;;;27.10;99.90;;;;;;4966359;28;20031;-76
2023/09/06 11:21:17;;;;;;;6.78;3.03;;;27.20;99.90;;;;;;4965668;28;20023;-76
2023/09/06 11:23:47;;;;;;;4.38;2.88;;;27.20;99.90;;;;;;4946637;28;20488;-76
2023/09/06 11:26:13;;;;;;;4.90;2.70;;;27.30;99.90;;;;;;4950039;28;20036;-76
2023/09/06 11:28:43;;;;;;;5.95;3.05;;;27.30;99.90;;;;;;4955538;28;20037;-76
2023/09/06 11:31:29;;;;;;;5.57;2.47;;;27.40;99.90;;;;;;4958020;28;20034;-76
2023/09/06 11:34:03;;;;;;;4.40;2.70;;;27.50;99.80;;;;;;4965770;28;20034;-76
2023/09/06 11:36:32;;;;;;;4.70;2.78;;;27.50;99.50;;;;;;4970572;28;20050;-76
2023/09/06 11:38:59;;;;;;;4.05;2.67;;;27.60;99.40;;;;;;4953933;28;20826;-76
2023/09/06 11:41:28;;;;;;;5.28;3.00;;;27.70;99.30;;;;;;4966054;28;20027;-76
2023/09/06 11:43:58;;;;;;;6.05;2.97;;;27.70;99.20;;;;;;4956193;28;20405;-76
2023/09/06 11:46:24;;;;;;;5.28;2.80;;;27.80;99.00;;;;;;4959448;28;20054;-76
2023/09/06 11:48:53;;;;;;;5.82;2.88;;;27.90;98.80;;;;;;4960955;28;20593;-76
2023/09/06 11:51:21;;;;;;;5.15;2.97;;;27.90;98.80;;;;;;4959744;28;20027;-76
2023/09/06 11:53:58;;;;;;;6.70;2.67;;;27.90;98.20;;;;;;4953391;28;20039;-75
2023/09/06 11:56:29;;;;;;;5.80;2.95;;;28.00;98.10;;;;;;4953355;28;20045;-76
2023/09/06 11:58:57;;;;;;;5.95;3.05;;;28.10;97.80;;;;;;4954321;28;20023;-76
2023/09/06 12:01:24;;;;;;;3.97;2.67;;;28.10;97.40;;;;;;4952439;28;20031;-76
2023/09/06 12:03:53;;;;;;;5.30;2.92;;;28.20;96.90;;;;;;4950362;28;20054;-76
2023/09/06 12:06:32;;;;;;;4.18;2.60;;;28.20;96.70;;;;;;4948603;28;20027;-76
2023/09/06 12:08:58;;;;;;;5.03;2.28;;;28.30;96.70;;;;;;4954486;28;20032;-76
2023/09/06 12:11:25;;;;;;;5.50;2.90;;;28.30;96.80;;;;;;4956486;28;20161;-76
2023/09/06 12:13:51;;;;;;;6.38;3.20;;;28.40;96.80;;;;;;4956260;28;20043;-76
2023/09/06 12:16:23;;;;;;;5.32;3.13;;;28.40;96.50;;;;;;4953439;28;20074;-76
2023/09/06 12:18:50;;;;;;;6.63;2.85;;;28.50;96.20;;;;;;4953673;28;20086;-75
2023/09/06 12:21:16;;;;;;;6.40;2.83;;;28.50;96.10;;;;;;4952947;28;20023;-76
2023/09/06 12:23:42;;;;;;;6.05;2.90;;;28.50;96.10;;;;;;4957346;28;20035;-76
2023/09/06 12:26:07;;;;;;;5.28;3.08;;;28.60;96.20;;;;;;4955674;28;20045;-76
2023/09/06 12:28:33;;;;;;;4.95;3.17;;;28.60;95.80;;;;;;4963622;28;20156;-76
2023/09/06 12:31:02;;;;;;;5.32;3.00;;;28.60;95.50;;;;;;4967455;28;20366;-76
2023/09/06 12:33:28;;;;;;;6.82;3.15;;;28.70;95.30;;;;;;4961126;28;20157;-76
2023/09/06 12:36:05;;;;;;;6.03;2.85;;;28.70;95.00;;;;;;4959193;28;20035;-76
2023/09/06 12:38:32;;;;;;;5.68;2.78;;;28.80;95.20;;;;;;4964992;28;20018;-77
2023/09/06 12:40:59;;;;;;;5.95;2.95;;;28.80;95.20;;;;;;4967070;28;20492;-76
2023/09/06 12:43:31;;;;;;;8.60;3.13;;;28.90;95.10;;;;;;4949964;28;20064;-76
2023/09/06 12:45:59;;;;;;;5.35;3.08;;;28.90;94.10;;;;;;4960205;28;20045;-76
2023/09/06 12:48:27;;;;;;;6.97;2.92;;;28.90;93.80;;;;;;4966510;28;20106;-76
2023/09/06 12:50:53;;;;;;;7.07;3.17;;;29.00;94.10;;;;;;4953584;28;20055;-75
2023/09/06 12:53:22;;;;;;;7.28;3.38;;;29.10;94.00;;;;;;4966443;28;20031;-76
2023/09/06 12:55:51;;;;;;;5.53;2.90;;;29.10;93.70;;;;;;4955634;28;20156;-76
2023/09/06 12:58:17;;;;;;;4.05;2.78;;;29.20;93.50;;;;;;4952459;28;20061;-77